Time;durP1;ratioP1;P1;durP2;ratioP2;P2;SDS_P1;SDS_P2;PMS_P1;PMS_P2;Temp;Humidity;BMP_temperature;BMP_pressure;BME280_temperature;BME280_humidity;BME280_pressure;Samples;Min_cycle;Max_cycle;Signal;HPM_P1;HPM_P2
2022/09/29 00:01:22;;;;;;;0.40;0.40;;;;;;;11.94;75.89;92635.00;5074046;28;20024;-34
2022/09/29 00:03:48;;;;;;;1.35;0.85;;;;;;;11.96;75.17;92629.59;5074019;28;20032;-34
2022/09/29 00:06:16;;;;;;;1.10;0.88;;;;;;;11.81;75.28;92616.00;5073833;28;20029;-34
2022/09/29 00:08:42;;;;;;;0.60;0.60;;;;;;;11.94;75.72;92627.44;5111584;28;20702;-34
2022/09/29 00:11:08;;;;;;;0.50;0.50;;;;;;;11.96;74.33;92618.53;5114303;28;20053;-34
2022/09/29 00:13:34;;;;;;;0.35;0.35;;;;;;;11.92;74.32;92629.31;5114428;28;20031;-34
2022/09/29 00:16:01;;;;;;;0.88;0.88;;;;;;;11.76;75.28;92628.81;5114523;28;20039;-34
2022/09/29 00:18:27;;;;;;;1.08;1.08;;;;;;;11.83;75.78;92627.97;5114327;28;20024;-34
2022/09/29 00:21:14;;;;;;;0.30;0.30;;;;;;;11.87;74.97;92622.00;5102551;28;20060;-34
2022/09/29 00:23:39;;;;;;;0.75;0.75;;;;;;;11.67;75.55;92610.16;5093683;28;20119;-34
2022/09/29 00:26:09;;;;;;;0.40;0.40;;;;;;;11.60;75.95;92626.81;5104423;28;20126;-34
2022/09/29 00:28:36;;;;;;;0.40;0.40;;;;;;;11.59;75.24;92620.56;5087940;28;20023;-34
2022/09/29 00:31:03;;;;;;;0.50;0.50;;;;;;;11.54;74.72;92623.59;5073176;28;20030;-34
2022/09/29 00:33:33;;;;;;;0.75;0.75;;;;;;;11.53;74.70;92614.56;5073141;28;20029;-34
2022/09/29 00:36:04;;;;;;;0.63;0.63;;;;;;;11.29;76.34;92620.97;5073381;28;20024;-34
2022/09/29 00:38:30;;;;;;;0.90;0.88;;;;;;;11.27;76.78;92623.59;5073169;28;20032;-34
2022/09/29 00:40:56;;;;;;;0.93;0.93;;;;;;;11.12;76.83;92607.94;5072959;28;20554;-34
2022/09/29 00:43:48;;;;;;;0.20;0.20;;;;;;;11.28;76.55;92636.13;5073232;28;20032;-34
2022/09/29 00:46:16;;;;;;;0.30;0.30;;;;;;;11.30;76.52;92622.47;5072927;28;20738;-34
2022/09/29 00:48:42;;;;;;;0.47;0.47;;;;;;;11.36;76.55;92622.91;5055138;28;20039;-34
2022/09/29 00:51:07;;;;;;;1.60;1.58;;;;;;;11.41;76.00;92627.47;5073181;28;20024;-34
2022/09/29 00:53:33;;;;;;;1.67;1.60;;;;;;;11.41;76.05;92621.94;5072755;28;20090;-34
2022/09/29 00:56:02;;;;;;;0.45;0.45;;;;;;;11.33;76.84;92629.59;5072781;28;20055;-34
2022/09/29 00:58:41;;;;;;;0.90;0.90;;;;;;;11.35;76.69;92618.69;5054469;28;20052;-34
2022/09/29 01:01:08;;;;;;;0.45;0.45;;;;;;;11.30;76.31;92617.63;5055137;28;20050;-34
2022/09/29 01:03:37;;;;;;;1.85;1.20;;;;;;;11.35;75.71;92615.91;5069179;28;20034;-34
2022/09/29 01:06:09;;;;;;;;;;;;;;;11.22;76.23;92617.03;5113984;28;20066;-34
2022/09/29 01:09:00;;;;;;;0.50;0.50;;;;;;;11.12;76.38;92616.25;5095794;28;19911;-34
2022/09/29 01:11:27;;;;;;;0.43;0.43;;;;;;;11.24;76.59;92624.75;5104507;28;20092;-34
2022/09/29 01:13:54;;;;;;;1.25;1.25;;;;;;;11.25;75.54;92615.16;5095059;28;20119;-34
2022/09/29 01:16:19;;;;;;;0.82;0.82;;;;;;;11.12;75.66;92626.56;5094843;28;20568;-34
2022/09/29 01:18:45;;;;;;;0.90;0.90;;;;;;;11.13;75.97;92611.44;5113165;28;20046;-34
2022/09/29 01:21:38;;;;;;;1.13;1.13;;;;;;;10.94;76.58;92614.06;5099019;28;20604;-34
2022/09/29 01:24:21;;;;;;;0.82;0.82;;;;;;;10.85;77.92;92628.56;5092556;28;20039;-34
2022/09/29 01:26:55;;;;;;;1.08;1.08;;;;;;;10.52;78.98;92620.47;5091924;28;20044;-34
2022/09/29 01:29:32;;;;;;;0.88;0.88;;;;;;;10.52;79.64;92625.25;5092391;28;20028;-34
2022/09/29 01:32:09;;;;;;;0.55;0.55;;;;;;;10.67;79.18;92625.09;5092660;28;20294;-34
2022/09/29 01:34:35;;;;;;;1.83;1.73;;;;;;;10.79;78.20;92623.28;5092228;28;20028;-34
2022/09/29 01:37:13;;;;;;;1.05;1.05;;;;;;;10.82;78.13;92621.41;5092220;28;20108;-34
2022/09/29 01:40:04;;;;;;;0.22;0.22;;;;;;;10.91;77.82;92623.50;5074266;28;20503;-34
2022/09/29 01:42:35;;;;;;;0.90;0.82;;;;;;;10.93;77.00;92618.88;5092187;28;20162;-34
2022/09/29 01:45:03;;;;;;;1.25;1.25;;;;;;;10.89;77.07;92623.34;5074376;28;20024;-34
2022/09/29 01:47:35;;;;;;;0.32;0.32;;;;;;;10.86;76.79;92622.47;5092095;28;20051;-34
2022/09/29 01:50:17;;;;;;;0.60;0.60;;;;;;;10.89;76.50;92617.84;5074010;28;20145;-34
2022/09/29 01:52:47;;;;;;;1.33;1.23;;;;;;;10.73;76.69;92617.28;5074274;28;20086;-34
2022/09/29 01:55:17;;;;;;;0.88;0.88;;;;;;;10.59;77.23;92616.13;5073853;28;20032;-34
2022/09/29 01:57:55;;;;;;;1.20;0.98;;;;;;;10.56;77.55;92612.50;5091855;28;20035;-34
2022/09/29 02:00:22;;;;;;;1.30;1.20;;;;;;;10.55;77.47;92619.31;5091813;28;20419;-34
2022/09/29 02:02:51;;;;;;;0.73;0.73;;;;;;;10.66;77.07;92631.88;5091721;28;20488;-34
2022/09/29 02:05:32;;;;;;;1.10;1.05;;;;;;;10.71;75.71;92632.94;5091912;28;20032;-34
2022/09/29 02:08:06;;;;;;;0.93;0.93;;;;;;;10.64;75.18;92635.22;5090477;28;20118;-34
2022/09/29 02:10:35;;;;;;;0.70;0.70;;;;;;;10.70;74.67;92643.25;5091097;28;20023;-34
2022/09/29 02:13:03;;;;;;;0.90;0.90;;;;;;;10.58;75.34;92643.03;5090710;28;20020;-34
2022/09/29 02:15:32;;;;;;;0.53;0.53;;;;;;;10.41;76.11;92628.47;5091674;28;20103;-34
2022/09/29 02:18:02;;;;;;;0.50;0.50;;;;;;;10.64;75.30;92648.28;5090242;28;20085;-34
2022/09/29 02:20:28;;;;;;;0.60;0.60;;;;;;;10.55;76.25;92651.69;5085606;28;20035;-34
2022/09/29 02:22:54;;;;;;;0.50;0.50;;;;;;;10.29;76.32;92644.03;5091427;28;20024;-34
2022/09/29 02:25:21;;;;;;;1.50;1.50;;;;;;;10.45;75.54;92639.84;5093043;28;20063;-34
2022/09/29 02:27:47;;;;;;;1.55;1.45;;;;;;;10.49;74.48;92632.63;5080988;28;20512;-34
2022/09/29 02:30:12;;;;;;;3.13;1.25;;;;;;;10.44;75.41;92630.84;5073258;28;20016;-34
2022/09/29 02:32:38;;;;;;;0.50;0.50;;;;;;;10.47;76.34;92629.72;5073060;28;20024;-34
2022/09/29 02:35:06;;;;;;;0.40;0.40;;;;;;;10.25;75.95;92632.69;5091146;28;20032;-34
2022/09/29 02:37:42;;;;;;;0.75;0.65;;;;;;;10.36;75.51;92634.97;5072952;28;20032;-34
2022/09/29 02:40:24;;;;;;;0.82;0.82;;;;;;;10.31;75.61;92633.19;5091377;28;20052;-34
2022/09/29 02:43:00;;;;;;;1.58;1.48;;;;;;;10.23;75.96;92646.31;5091335;28;20511;-34
2022/09/29 02:46:01;;;;;;;0.82;0.82;;;;;;;10.13;76.71;92639.97;5090895;28;20024;-34
2022/09/29 02:48:48;;;;;;;0.85;0.85;;;;;;;10.28;76.49;92648.84;5052651;28;20036;-34
2022/09/29 02:51:19;;;;;;;0.57;0.57;;;;;;;10.13;76.65;92657.25;5090874;28;20027;-34
2022/09/29 02:54:03;;;;;;;0.75;0.75;;;;;;;10.09;76.50;92656.16;5073063;28;20031;-34
2022/09/29 02:56:48;;;;;;;0.40;0.40;;;;;;;10.05;75.90;92650.31;5101572;28;20058;-34
2022/09/29 02:59:17;;;;;;;0.65;0.65;;;;;;;10.09;75.34;92656.16;5092994;28;20107;-34
2022/09/29 03:01:51;;;;;;;0.68;0.55;;;;;;;9.90;76.05;92662.19;5092917;28;20106;-34
2022/09/29 03:04:20;;;;;;;4.15;2.08;;;;;;;9.91;76.12;92658.88;5111322;28;20104;-34
2022/09/29 03:06:46;;;;;;;1.90;1.30;;;;;;;9.94;75.68;92651.50;5111102;28;20023;-34
2022/09/29 03:09:11;;;;;;;1.63;1.52;;;;;;;9.95;76.17;92655.72;5111295;28;20715;-34
2022/09/29 03:11:37;;;;;;;0.73;0.73;;;;;;;9.89;75.99;92661.47;5111186;28;20414;-34
2022/09/29 03:14:03;;;;;;;0.85;0.85;;;;;;;9.88;75.78;92659.25;5093039;28;20023;-34
2022/09/29 03:16:28;;;;;;;0.40;0.40;;;;;;;9.90;75.25;92664.94;5110775;28;20032;-34
2022/09/29 03:18:55;;;;;;;0.40;0.40;;;;;;;9.91;75.58;92666.41;5111102;28;20031;-34
2022/09/29 03:21:21;;;;;;;1.13;1.13;;;;;;;9.87;76.29;92671.59;5095545;28;20456;-34
2022/09/29 03:23:46;;;;;;;0.82;0.82;;;;;;;9.93;75.74;92672.09;5090642;28;20067;-34
2022/09/29 03:26:11;;;;;;;0.30;0.30;;;;;;;9.81;75.80;92676.63;5089868;28;20051;-34
2022/09/29 03:28:37;;;;;;;0.82;0.82;;;;;;;9.80;76.07;92664.09;5090243;28;20077;-34
2022/09/29 03:31:05;;;;;;;1.23;1.23;;;;;;;9.80;76.30;92664.09;5090308;28;20077;-34
2022/09/29 03:33:30;;;;;;;0.50;0.50;;;;;;;9.70;76.41;92663.28;5090631;28;20028;-34
2022/09/29 03:35:56;;;;;;;0.30;0.30;;;;;;;9.71;76.49;92664.72;5090538;28;20518;-34
2022/09/29 03:38:21;;;;;;;0.47;0.47;;;;;;;9.77;76.02;92667.97;5090318;28;20020;-34
2022/09/29 03:40:47;;;;;;;1.95;1.05;;;;;;;9.66;75.20;92668.41;5090169;28;20024;-34
2022/09/29 03:43:12;;;;;;;0.90;0.85;;;;;;;9.60;75.97;92668.66;5090277;28;20024;-34
2022/09/29 03:45:47;;;;;;;2.25;1.60;;;;;;;9.60;75.92;92674.16;5090182;28;20028;-34
2022/09/29 03:48:12;;;;;;;1.48;0.75;;;;;;;9.46;75.81;92683.25;5090529;28;20020;-34
2022/09/29 03:50:37;;;;;;;7.68;3.05;;;;;;;9.44;76.57;92678.28;5090390;28;20047;-34
2022/09/29 03:53:03;;;;;;;2.47;2.28;;;;;;;9.48;77.30;92675.16;5090175;28;20534;-34
2022/09/29 03:55:28;;;;;;;1.17;1.17;;;;;;;9.42;76.79;92669.16;5090094;28;20028;-34
2022/09/29 03:57:54;;;;;;;1.00;1.00;;;;;;;9.44;77.23;92672.06;5090434;28;20028;-34
2022/09/29 04:00:19;;;;;;;1.92;1.83;;;;;;;9.50;77.73;92670.56;5090074;28;20039;-34
2022/09/29 04:02:44;;;;;;;0.30;0.30;;;;;;;9.50;76.53;92651.28;5090087;28;20024;-34
2022/09/29 04:05:10;;;;;;;0.38;0.38;;;;;;;9.38;77.17;92635.72;5089989;28;20032;-34
2022/09/29 04:07:35;;;;;;;0.80;0.80;;;;;;;9.34;77.88;92607.84;5089976;28;20028;-34
2022/09/29 04:10:01;;;;;;;1.83;1.75;;;;;;;9.41;78.02;92645.63;5088958;28;20036;-34
2022/09/29 04:12:26;;;;;;;0.95;0.95;;;;;;;9.33;78.16;92656.72;5089957;28;20031;-34
2022/09/29 04:14:52;;;;;;;0.63;0.63;;;;;;;9.23;77.24;92638.56;5090292;28;20032;-34
2022/09/29 04:17:17;;;;;;;2.03;1.83;;;;;;;9.43;76.86;92643.03;5090166;28;20024;-34
2022/09/29 04:19:42;;;;;;;0.55;0.55;;;;;;;9.33;78.11;92650.47;5090158;28;20020;-34
2022/09/29 04:22:08;;;;;;;0.70;0.70;;;;;;;9.31;79.18;92664.06;5090166;28;20412;-34
2022/09/29 04:24:33;;;;;;;1.20;1.20;;;;;;;9.22;78.78;92664.66;5090089;28;20024;-34
2022/09/29 04:26:59;;;;;;;1.42;1.40;;;;;;;9.22;78.80;92672.91;5089309;28;20055;-34
2022/09/29 04:29:24;;;;;;;0.93;0.93;;;;;;;9.35;78.03;92669.91;5089729;28;20496;-34
2022/09/29 04:31:50;;;;;;;0.93;0.88;;;;;;;9.26;78.05;92667.75;5089728;28;20028;-34
2022/09/29 04:34:15;;;;;;;1.35;1.25;;;;;;;9.14;78.86;92670.94;5092461;28;20020;-34
2022/09/29 04:36:41;;;;;;;0.68;0.68;;;;;;;9.31;78.35;92673.06;5093391;28;20024;-34
2022/09/29 04:39:06;;;;;;;0.80;0.80;;;;;;;9.29;78.68;92672.16;5093404;28;20032;-34
2022/09/29 04:41:34;;;;;;;0.63;0.63;;;;;;;9.20;79.05;92672.75;5093339;28;20544;-34
2022/09/29 04:44:01;;;;;;;1.93;1.83;;;;;;;9.40;78.64;92666.22;5093553;28;20028;-34
2022/09/29 04:46:26;;;;;;;0.47;0.47;;;;;;;9.44;79.04;92655.53;5093171;28;20024;-34
2022/09/29 04:48:52;;;;;;;0.60;0.60;;;;;;;9.39;79.19;92662.00;5093062;28;20070;-34
2022/09/29 04:51:17;;;;;;;1.70;1.60;;;;;;;9.39;78.92;92650.97;5093188;28;20031;-34
2022/09/29 04:53:43;;;;;;;0.95;0.95;;;;;;;9.39;78.57;92650.97;5093130;28;20024;-34
2022/09/29 04:56:08;;;;;;;0.47;0.47;;;;;;;9.32;78.65;92658.00;5093040;28;20031;-34
2022/09/29 04:58:34;;;;;;;0.40;0.40;;;;;;;9.28;78.34;92652.13;5093297;28;20032;-34
2022/09/29 05:01:12;;;;;;;0.75;0.75;;;;;;;9.40;77.55;92650.41;5093316;28;20457;-34
2022/09/29 05:03:38;;;;;;;1.25;1.15;;;;;;;9.41;77.50;92657.38;5092924;28;20556;-34
2022/09/29 05:06:04;;;;;;;0.88;0.88;;;;;;;9.29;78.16;92655.63;5092796;28;20032;-34
2022/09/29 05:08:30;;;;;;;1.45;1.00;;;;;;;9.41;77.50;92649.13;5093108;28;20089;-34
2022/09/29 05:10:55;;;;;;;6.07;2.40;;;;;;;9.34;78.27;92658.16;5091532;28;20027;-34
2022/09/29 05:13:20;;;;;;;0.30;0.30;;;;;;;9.36;78.49;92652.09;5093032;28;20048;-34
2022/09/29 05:15:46;;;;;;;3.13;2.85;;;;;;;9.38;78.69;92653.00;5092976;28;20473;-34
2022/09/29 05:18:11;;;;;;;1.02;1.02;;;;;;;9.41;78.63;92649.13;5092694;28;20032;-34
2022/09/29 05:20:37;;;;;;;2.20;1.48;;;;;;;9.50;78.39;92650.53;5092587;28;20047;-34
2022/09/29 05:23:08;;;;;;;2.03;1.75;;;;;;;9.57;78.06;92655.28;5092827;28;20020;-34
2022/09/29 05:25:34;;;;;;;14.88;3.13;;;;;;;9.59;78.95;92650.66;5096469;28;20096;-34
2022/09/29 05:28:00;;;;;;;2.05;1.60;;;;;;;9.56;79.11;92651.78;5078238;28;20039;-34
2022/09/29 05:30:25;;;;;;;3.75;1.33;;;;;;;9.69;78.93;92659.03;5072190;28;20033;-34
2022/09/29 05:32:51;;;;;;;1.80;1.15;;;;;;;9.78;78.74;92661.94;5072209;28;20476;-34
2022/09/29 05:35:16;;;;;;;1.20;1.20;;;;;;;9.72;79.20;92650.38;5072350;28;20115;-34
2022/09/29 05:37:42;;;;;;;2.45;2.17;;;;;;;9.89;79.50;92661.47;5072043;28;20504;-34
2022/09/29 05:40:07;;;;;;;2.13;1.40;;;;;;;9.93;79.79;92663.81;5072006;28;20028;-34
2022/09/29 05:42:33;;;;;;;2.70;2.17;;;;;;;9.94;80.62;92660.50;5072266;28;20028;-34
2022/09/29 05:44:59;;;;;;;0.30;0.30;;;;;;;10.06;80.97;92660.03;5072147;28;20102;-34
2022/09/29 05:47:24;;;;;;;1.77;1.65;;;;;;;10.16;81.25;92669.16;5071730;28;20036;-34
2022/09/29 05:49:49;;;;;;;1.80;1.70;;;;;;;10.20;82.21;92664.00;5071716;28;20067;-34
2022/09/29 05:52:15;;;;;;;5.88;2.63;;;;;;;10.32;82.48;92673.28;5071761;28;20028;-34
2022/09/29 05:54:40;;;;;;;8.55;4.30;;;;;;;10.51;82.66;92671.44;5071960;28;20029;-34
2022/09/29 05:57:06;;;;;;;5.70;5.20;;;;;;;10.86;81.75;92663.16;5071986;28;20500;-34
2022/09/29 05:59:31;;;;;;;7.70;6.95;;;;;;;11.16;80.66;92657.25;5071642;28;20412;-34
2022/09/29 06:01:56;;;;;;;6.53;6.03;;;;;;;11.36;79.92;92653.31;5071465;28;20485;-34
2022/09/29 06:04:22;;;;;;;0.88;0.88;;;;;;;11.51;80.11;92657.91;5071871;28;20025;-34
2022/09/29 06:06:47;;;;;;;2.00;0.60;;;;;;;11.67;80.33;92667.50;5071606;28;20522;-34
2022/09/29 06:09:13;;;;;;;1.73;1.63;;;;;;;12.00;80.15;92669.38;5071522;28;20029;-34
2022/09/29 06:11:38;;;;;;;3.60;2.58;;;;;;;12.32;78.38;92665.56;5071668;28;20047;-34
2022/09/29 06:14:04;;;;;;;0.90;0.90;;;;;;;12.70;77.75;92665.63;5071645;28;20028;-34
2022/09/29 06:16:30;;;;;;;1.42;1.33;;;;;;;13.18;76.92;92667.69;5071214;28;20013;-34
2022/09/29 06:18:58;;;;;;;0.73;0.73;;;;;;;13.77;75.23;92661.47;5071451;28;20054;-34
2022/09/29 06:21:25;;;;;;;0.35;0.35;;;;;;;14.46;72.40;92664.84;5071091;28;20058;-34
2022/09/29 06:23:52;;;;;;;0.32;0.32;;;;;;;15.20;69.04;92666.25;5071140;28;20062;-35
2022/09/29 06:26:18;;;;;;;0.68;0.68;;;;;;;15.84;68.53;92658.50;5096935;28;20055;-35
2022/09/29 06:28:44;;;;;;;0.32;0.32;;;;;;;16.50;66.53;92662.56;5083171;28;20024;-34
2022/09/29 06:31:12;;;;;;;0.30;0.30;;;;;;;17.32;63.42;92663.13;5070965;28;20507;-34
2022/09/29 06:33:38;;;;;;;0.77;0.77;;;;;;;18.10;61.06;92661.91;5070959;28;20028;-35
2022/09/29 06:39:06;;;;;;;0.50;0.50;;;;;;;19.12;56.98;92651.13;5056081;28;20124;-34
2022/09/29 06:41:31;;;;;;;0.10;0.10;;;;;;;19.80;55.82;92662.88;5070748;28;20054;-34
2022/09/29 06:43:57;;;;;;;0.55;0.55;;;;;;;20.39;53.69;92661.47;5070691;28;20107;-35
2022/09/29 06:46:25;;;;;;;0.10;0.10;;;;;;;21.05;52.49;92663.69;5093090;28;20023;-35
2022/09/29 06:48:51;;;;;;;0.30;0.30;;;;;;;21.62;51.72;92675.22;5111579;28;20032;-35
2022/09/29 06:51:16;;;;;;;0.65;0.65;;;;;;;22.38;49.58;92665.56;5111587;28;20084;-35
2022/09/29 06:53:42;;;;;;;0.25;0.25;;;;;;;23.36;47.46;92674.13;5111482;28;20024;-35
2022/09/29 06:56:08;;;;;;;0.25;0.25;;;;;;;24.07;45.65;92663.84;5110734;28;20015;-35
2022/09/29 06:58:34;;;;;;;6.82;1.05;;;;;;;24.60;43.74;92673.94;5111471;28;20035;-35
2022/09/29 07:01:00;;;;;;;0.20;0.20;;;;;;;24.97;39.34;92673.63;5111026;28;20031;-35
2022/09/29 07:03:29;;;;;;;0.08;0.08;;;;;;;24.89;39.38;92676.22;5111120;28;20539;-35
2022/09/29 07:05:54;;;;;;;1.45;0.57;;;;;;;24.30;41.06;92676.53;5110972;28;20471;-35
2022/09/29 07:08:20;;;;;;;0.00;0.00;;;;;;;24.34;42.59;92681.59;5092772;28;20058;-35
2022/09/29 07:10:46;;;;;;;0.20;0.20;;;;;;;24.02;43.66;92686.91;5110965;28;20063;-35
2022/09/29 07:13:11;;;;;;;0.00;0.00;;;;;;;23.91;45.10;92685.13;5111218;28;20101;-35
2022/09/29 07:15:37;;;;;;;0.03;0.03;;;;;;;23.87;42.36;92688.53;5111193;28;20475;-35
2022/09/29 07:18:03;;;;;;;0.30;0.30;;;;;;;23.42;43.40;92688.41;5111115;28;20050;-35
2022/09/29 07:20:30;;;;;;;0.73;0.70;;;;;;;23.99;42.14;92691.03;5084852;28;20046;-35
2022/09/29 07:22:56;;;;;;;0.40;0.40;;;;;;;24.62;39.85;92669.03;5090439;28;20056;-35
2022/09/29 07:25:23;;;;;;;0.20;0.20;;;;;;;25.53;40.24;92688.63;5090066;28;20545;-35
2022/09/29 07:27:50;;;;;;;0.28;0.28;;;;;;;25.46;40.27;92679.25;5090310;28;20036;-35
2022/09/29 07:30:16;;;;;;;0.00;0.00;;;;;;;25.96;37.58;92687.59;5090359;28;20426;-35
2022/09/29 07:32:42;;;;;;;0.13;0.13;;;;;;;25.89;39.22;92686.00;5090426;28;20491;-35
2022/09/29 07:35:07;;;;;;;0.05;0.05;;;;;;;25.68;39.63;92690.44;5090581;28;20028;-35
2022/09/29 07:37:33;;;;;;;1.10;1.08;;;;;;;25.77;39.31;92691.38;5090382;28;20016;-35
2022/09/29 07:39:58;;;;;;;0.10;0.10;;;;;;;25.69;38.17;92699.63;5090622;28;20031;-35
2022/09/29 07:42:24;;;;;;;0.10;0.10;;;;;;;26.11;37.31;92695.81;5090185;28;20036;-35
2022/09/29 07:44:49;;;;;;;0.73;0.73;;;;;;;26.03;36.11;92692.03;5089041;28;20034;-35
2022/09/29 07:47:15;;;;;;;0.17;0.15;;;;;;;25.01;40.32;92696.34;5090445;28;20023;-35
2022/09/29 07:49:41;;;;;;;0.22;0.22;;;;;;;24.78;40.36;92688.59;5090276;28;20419;-35
2022/09/29 07:52:07;;;;;;;0.40;0.40;;;;;;;24.76;39.41;92692.09;5090238;28;20526;-35
2022/09/29 07:54:33;;;;;;;0.10;0.10;;;;;;;24.64;41.38;92703.00;5090150;28;20020;-35
2022/09/29 07:56:59;;;;;;;0.28;0.28;;;;;;;24.89;41.18;92701.63;5090161;28;20024;-35
2022/09/29 07:59:26;;;;;;;0.00;0.00;;;;;;;25.25;40.92;92693.47;5090081;28;20496;-35
2022/09/29 08:01:52;;;;;;;0.20;0.20;;;;;;;25.34;37.97;92689.47;5090384;28;20085;-35
2022/09/29 08:04:17;;;;;;;0.13;0.13;;;;;;;25.41;38.82;92697.47;5088904;28;20024;-35
2022/09/29 08:06:43;;;;;;;0.10;0.10;;;;;;;25.45;38.74;92703.25;5089937;28;20027;-35
2022/09/29 08:09:08;;;;;;;0.25;0.25;;;;;;;25.88;37.55;92701.56;5093051;28;20050;-35
2022/09/29 08:11:37;;;;;;;0.28;0.20;;;;;;;26.40;36.49;92702.16;5094289;28;20031;-35
2022/09/29 08:14:03;;;;;;;0.10;0.10;;;;;;;27.01;34.86;92707.78;5094024;28;20066;-35
2022/09/29 08:16:29;;;;;;;0.38;0.38;;;;;;;27.98;33.06;92701.25;5093800;28;20028;-35
2022/09/29 08:18:54;;;;;;;0.25;0.17;;;;;;;28.87;32.16;92706.94;5093928;28;20032;-36
2022/09/29 08:21:20;;;;;;;0.10;0.10;;;;;;;29.50;30.57;92713.50;5093693;28;20028;-36
2022/09/29 08:23:45;;;;;;;0.22;0.22;;;;;;;29.46;32.49;92702.78;5093680;28;20154;-36
2022/09/29 08:26:13;;;;;;;0.00;0.00;;;;;;;29.21;30.64;92703.88;5102717;28;20035;-35
2022/09/29 08:28:39;;;;;;;0.30;0.30;;;;;;;29.55;30.67;92709.28;5068999;28;20036;-35
2022/09/29 08:31:10;;;;;;;0.20;0.20;;;;;;;30.44;28.91;92705.25;5073328;28;20033;-36
2022/09/29 08:33:36;;;;;;;0.30;0.30;;;;;;;30.57;29.33;92703.94;5073288;28;20032;-36
2022/09/29 08:36:05;;;;;;;0.73;0.55;;;;;;;31.00;26.87;92708.53;5073200;28;20058;-36
2022/09/29 08:38:31;;;;;;;0.05;0.05;;;;;;;30.76;27.62;92711.19;5107684;28;20456;-36
2022/09/29 08:41:02;;;;;;;0.00;0.00;;;;;;;30.62;27.49;92711.09;5113772;28;20176;-35
2022/09/29 08:43:37;;;;;;;0.08;0.08;;;;;;;30.46;27.11;92711.69;5113821;28;20023;-35
2022/09/29 08:46:27;;;;;;;0.00;0.00;;;;;;;30.94;27.78;92711.34;5095919;28;20027;-35
2022/09/29 08:48:54;;;;;;;0.00;0.00;;;;;;;31.34;25.79;92708.72;5095551;28;20111;-36
2022/09/29 08:51:30;;;;;;;0.20;0.20;;;;;;;30.65;26.17;92716.09;5095819;28;20051;-36
2022/09/29 08:54:01;;;;;;;0.10;0.10;;;;;;;30.49;26.02;92724.50;5113609;28;20034;-35
2022/09/29 08:56:26;;;;;;;0.10;0.10;;;;;;;30.09;27.41;92721.28;5095358;28;20076;-35
2022/09/29 08:58:52;;;;;;;0.00;0.00;;;;;;;30.65;26.80;92721.09;5113710;28;20035;-35
2022/09/29 09:01:48;;;;;;;0.10;0.10;;;;;;;30.40;27.90;92734.44;5113382;28;20035;-35
2022/09/29 09:04:25;;;;;;;0.00;0.00;;;;;;;29.99;27.10;92735.41;5113452;28;20499;-35
2022/09/29 09:07:09;;;;;;;0.43;0.43;;;;;;;29.52;27.49;92728.44;5113224;28;20023;-36
2022/09/29 09:09:51;;;;;;;0.00;0.00;;;;;;;29.52;28.68;92725.59;5113575;28;20027;-35
2022/09/29 09:12:47;;;;;;;0.28;0.28;;;;;;;29.91;28.05;92726.78;5113157;28;20505;-36
2022/09/29 09:15:34;;;;;;;0.00;0.00;;;;;;;29.44;27.75;92736.16;5113489;28;20024;-35
2022/09/29 09:18:21;;;;;;;0.15;0.15;;;;;;;28.01;30.42;92740.31;5113113;28;20081;-35
2022/09/29 09:20:55;;;;;;;0.00;0.00;;;;;;;28.14;30.86;92744.06;5102529;28;20460;-35
2022/09/29 09:23:25;;;;;;;0.10;0.10;;;;;;;28.06;30.15;92741.09;5092804;28;20032;-35
2022/09/29 09:25:54;;;;;;;0.13;0.13;;;;;;;27.15;31.31;92741.38;5091991;28;20525;-35
2022/09/29 09:28:49;;;;;;;0.20;0.20;;;;;;;26.15;33.46;92737.63;5092404;28;20016;-35
2022/09/29 09:31:26;;;;;;;0.32;0.30;;;;;;;25.70;34.84;92747.03;5085521;28;20059;-35
2022/09/29 09:33:57;;;;;;;0.10;0.10;;;;;;;25.99;33.59;92748.50;5080537;28;20035;-35
2022/09/29 09:36:30;;;;;;;0.10;0.10;;;;;;;26.66;34.38;92754.41;5092621;28;20031;-35
2022/09/29 09:39:04;;;;;;;0.20;0.20;;;;;;;27.61;32.66;92740.22;5091480;28;20028;-35
2022/09/29 09:41:30;;;;;;;0.00;0.00;;;;;;;27.26;32.15;92737.38;5091112;28;20477;-36
2022/09/29 09:44:02;;;;;;;0.20;0.20;;;;;;;27.24;33.09;92740.16;5091142;28;20023;-35
2022/09/29 09:46:55;;;;;;;0.10;0.10;;;;;;;27.73;30.63;92746.16;5092381;28;20662;-35
2022/09/29 09:50:00;;;;;;;0.00;0.00;;;;;;;28.65;30.26;92745.69;5091625;28;20518;-35
2022/09/29 09:52:44;;;;;;;0.00;0.00;;;;;;;30.08;28.83;92745.47;5088909;28;20127;-35
2022/09/29 09:55:17;;;;;;;0.35;0.35;;;;;;;30.30;28.59;92739.28;5091019;28;20032;-35
2022/09/29 09:58:25;;;;;;;0.00;0.00;;;;;;;29.09;28.10;92744.22;5090854;28;20047;-35
2022/09/29 10:00:55;;;;;;;0.25;0.20;;;;;;;28.81;29.96;92743.78;5086091;28;20048;-35
2022/09/29 10:03:20;;;;;;;0.10;0.10;;;;;;;30.36;29.14;92745.06;5090907;28;20099;-35
2022/09/29 10:05:47;;;;;;;0.00;0.00;;;;;;;31.24;26.52;92745.75;5091750;28;20115;-35
2022/09/29 10:08:38;;;;;;;0.05;0.05;;;;;;;31.44;25.64;92742.34;5090920;28;20055;-35
2022/09/29 10:11:21;;;;;;;0.50;0.50;;;;;;;32.16;23.81;92731.19;5090659;28;20027;-36
2022/09/29 10:13:51;;;;;;;0.00;0.00;;;;;;;33.33;24.52;92727.69;5091939;28;20020;-33
2022/09/29 10:16:24;;;;;;;0.10;0.10;;;;;;;34.18;23.85;92728.81;5091709;28;20081;-33
2022/09/29 10:18:53;;;;;;;0.10;0.10;;;;;;;34.69;22.60;92722.78;5090299;28;20052;-33
2022/09/29 10:21:42;;;;;;;0.13;0.13;;;;;;;35.05;20.99;92714.59;5091691;28;20381;-33
2022/09/29 10:24:27;;;;;;;0.10;0.10;;;;;;;35.09;21.92;92728.19;5091428;28;20030;-33
2022/09/29 10:26:56;;;;;;;0.00;0.00;;;;;;;34.79;20.19;92723.41;5101215;28;20431;-33
2022/09/29 10:29:36;;;;;;;0.00;0.00;;;;;;;35.50;20.40;92728.50;5067158;28;20020;-33
2022/09/29 10:32:36;;;;;;;1.00;0.85;;;;;;;36.07;20.76;92729.31;5092866;28;20049;-33
2022/09/29 10:35:04;;;;;;;0.08;0.08;;;;;;;35.44;20.93;92732.16;5111551;28;20529;-33
2022/09/29 10:37:34;;;;;;;0.10;0.10;;;;;;;34.83;22.06;92731.25;5111768;28;20030;-33
2022/09/29 10:40:12;;;;;;;0.00;0.00;;;;;;;34.37;21.76;92729.44;5111525;28;20027;-33
2022/09/29 10:42:40;;;;;;;0.00;0.00;;;;;;;33.99;21.02;92718.13;5111475;28;20027;-33
2022/09/29 10:45:19;;;;;;;0.33;0.33;;;;;;;34.46;21.64;92725.03;5111425;28;20522;-33
2022/09/29 10:47:59;;;;;;;0.17;0.05;;;;;;;34.89;21.82;92725.47;5111411;28;20031;-33
2022/09/29 10:50:33;;;;;;;0.40;0.40;;;;;;;34.73;22.32;92728.47;5111691;28;20119;-33
2022/09/29 10:53:01;;;;;;;0.50;0.35;;;;;;;34.15;21.66;92721.66;5111490;28;20505;-33
2022/09/29 10:55:34;;;;;;;0.00;0.00;;;;;;;34.73;22.47;92722.72;5111515;28;20098;-33
2022/09/29 10:58:04;;;;;;;0.10;0.10;;;;;;;33.74;22.76;92728.28;5111456;28;20150;-33
2022/09/29 11:00:36;;;;;;;0.20;0.20;;;;;;;31.15;24.50;92718.59;5093041;28;20024;-35
2022/09/29 11:03:07;;;;;;;0.05;0.05;;;;;;;30.02;26.70;92727.63;5093303;28;20031;-35
2022/09/29 11:05:34;;;;;;;0.10;0.10;;;;;;;29.26;28.22;92725.25;5111264;28;20110;-35
2022/09/29 11:08:01;;;;;;;0.00;0.00;;;;;;;28.26;29.25;92730.09;5110950;28;20027;-35
2022/09/29 11:10:32;;;;;;;0.10;0.10;;;;;;;27.66;31.20;92715.50;5110945;28;20023;-35
2022/09/29 11:12:59;;;;;;;0.60;0.35;;;;;;;28.04;31.06;92726.88;5110884;28;20511;-35
2022/09/29 11:15:37;;;;;;;0.13;0.13;;;;;;;28.71;29.62;92706.00;5093251;28;20098;-35
2022/09/29 11:18:18;;;;;;;0.83;0.53;;;;;;;28.12;29.38;92724.91;5111213;28;20043;-35
2022/09/29 11:20:43;;;;;;;0.00;0.00;;;;;;;27.97;30.42;92726.06;5100838;28;20023;-35
2022/09/29 11:23:23;;;;;;;0.10;0.10;;;;;;;28.31;29.89;92723.81;5090472;28;20028;-35
2022/09/29 11:25:55;;;;;;;0.65;0.65;;;;;;;27.39;30.33;92725.63;5068396;28;20548;-34
2022/09/29 11:28:23;;;;;;;0.05;0.05;;;;;;;27.29;31.30;92724.69;5070494;28;20560;-35
2022/09/29 11:31:19;;;;;;;0.45;0.30;;;;;;;27.14;32.17;92726.47;5070184;28;20492;-35
2022/09/29 11:34:00;;;;;;;0.00;0.00;;;;;;;27.71;32.54;92722.69;5048560;28;20042;-35
2022/09/29 11:36:29;;;;;;;0.00;0.00;;;;;;;28.37;30.75;92714.69;5070474;28;20024;-35
2022/09/29 11:39:21;;;;;;;4.40;0.50;;;;;;;28.29;31.47;92709.56;5069282;28;20458;-35
2022/09/29 11:42:00;;;;;;;0.10;0.10;;;;;;;27.61;30.21;92714.00;5070981;28;20077;-35
2022/09/29 11:45:02;;;;;;;0.15;0.15;;;;;;;26.95;30.61;92714.06;5074608;28;20094;-35
2022/09/29 11:47:33;;;;;;;0.20;0.20;;;;;;;27.32;31.00;92709.88;5074177;28;20063;-35
2022/09/29 11:50:26;;;;;;;0.10;0.10;;;;;;;26.34;32.17;92705.53;5074234;28;20074;-35
2022/09/29 11:53:01;;;;;;;0.20;0.20;;;;;;;25.37;33.65;92717.13;5074359;28;20381;-34
2022/09/29 11:55:41;;;;;;;1.23;0.65;;;;;;;25.23;33.26;92699.06;5074034;28;20037;-34